sensor_id;sensor_type;location;lat;lon;timestamp;temperature;humidity
36800;DHT22;22752;51.960;5.886;2023-09-19T00:00:22;15.70;99.90
36800;DHT22;22752;51.960;5.886;2023-09-19T00:02:56;15.60;99.90
36800;DHT22;22752;51.960;5.886;2023-09-19T00:05:34;15.60;99.90
36800;DHT22;22752;51.960;5.886;2023-09-19T00:08:00;15.60;99.90
36800;DHT22;22752;51.960;5.886;2023-09-19T00:10:26;15.50;99.90
36800;DHT22;22752;51.960;5.886;2023-09-19T00:12:53;15.50;99.90
36800;DHT22;22752;51.960;5.886;2023-09-19T00:15:27;15.50;99.90
36800;DHT22;22752;51.960;5.886;2023-09-19T00:17:56;15.50;99.90
36800;DHT22;22752;51.960;5.886;2023-09-19T00:20:22;15.50;99.90
36800;DHT22;22752;51.960;5.886;2023-09-19T00:22:51;15.60;99.90
36800;DHT22;22752;51.960;5.886;2023-09-19T00:25:20;15.60;99.90
36800;DHT22;22752;51.960;5.886;2023-09-19T00:27:47;15.70;99.90
36800;DHT22;22752;51.960;5.886;2023-09-19T00:30:15;15.80;99.90
36800;DHT22;22752;51.960;5.886;2023-09-19T00:32:50;15.80;99.90
36800;DHT22;22752;51.960;5.886;2023-09-19T00:35:20;15.80;99.90
36800;DHT22;22752;51.960;5.886;2023-09-19T00:37:49;15.90;99.90
36800;DHT22;22752;51.960;5.886;2023-09-19T00:40:14;15.90;99.90
36800;DHT22;22752;51.960;5.886;2023-09-19T00:42:46;15.90;99.90
36800;DHT22;22752;51.960;5.886;2023-09-19T00:45:14;15.90;99.90
36800;DHT22;22752;51.960;5.886;2023-09-19T00:47:42;15.80;99.90
36800;DHT22;22752;51.960;5.886;2023-09-19T00:50:10;15.80;99.90
36800;DHT22;22752;51.960;5.886;2023-09-19T00:52:37;15.80;99.90
36800;DHT22;22752;51.960;5.886;2023-09-19T00:55:05;15.80;99.90
36800;DHT22;22752;51.960;5.886;2023-09-19T00:57:33;15.80;99.90
36800;DHT22;22752;51.960;5.886;2023-09-19T01:00:00;15.80;99.90
36800;DHT22;22752;51.960;5.886;2023-09-19T01:02:31;15.80;99.90
36800;DHT22;22752;51.960;5.886;2023-09-19T01:04:57;15.80;99.90
36800;DHT22;22752;51.960;5.886;2023-09-19T01:07:23;15.70;99.90
36800;DHT22;22752;51.960;5.886;2023-09-19T01:09:49;15.70;99.90
36800;DHT22;22752;51.960;5.886;2023-09-19T01:12:22;15.70;99.90
36800;DHT22;22752;51.960;5.886;2023-09-19T01:14:56;15.70;99.90
36800;DHT22;22752;51.960;5.886;2023-09-19T01:17:38;15.60;99.90
36800;DHT22;22752;51.960;5.886;2023-09-19T01:26:02;15.40;99.90
36800;DHT22;22752;51.960;5.886;2023-09-19T01:31:12;15.40;99.90
36800;DHT22;22752;51.960;5.886;2023-09-19T01:34:01;15.40;99.90
36800;DHT22;22752;51.960;5.886;2023-09-19T01:36:34;15.40;99.90
36800;DHT22;22752;51.960;5.886;2023-09-19T01:39:07;15.40;99.90
36800;DHT22;22752;51.960;5.886;2023-09-19T01:42:06;15.40;99.90
36800;DHT22;22752;51.960;5.886;2023-09-19T01:44:51;15.40;99.90
36800;DHT22;22752;51.960;5.886;2023-09-19T01:47:31;15.50;99.90
36800;DHT22;22752;51.960;5.886;2023-09-19T01:52:57;15.60;99.90
36800;DHT22;22752;51.960;5.886;2023-09-19T01:55:26;15.60;99.90
36800;DHT22;22752;51.960;5.886;2023-09-19T01:58:08;15.60;99.90
36800;DHT22;22752;51.960;5.886;2023-09-19T02:00:38;15.70;99.90
36800;DHT22;22752;51.960;5.886;2023-09-19T02:03:05;15.60;99.90
36800;DHT22;22752;51.960;5.886;2023-09-19T02:05:31;15.60;99.90
36800;DHT22;22752;51.960;5.886;2023-09-19T02:07:58;15.60;99.90
36800;DHT22;22752;51.960;5.886;2023-09-19T02:10:24;15.60;99.90
36800;DHT22;22752;51.960;5.886;2023-09-19T02:12:50;15.60;99.90
36800;DHT22;22752;51.960;5.886;2023-09-19T02:15:16;15.50;99.90
36800;DHT22;22752;51.960;5.886;2023-09-19T02:17:43;15.40;99.90
36800;DHT22;22752;51.960;5.886;2023-09-19T02:20:10;15.30;99.90
36800;DHT22;22752;51.960;5.886;2023-09-19T02:22:43;15.10;99.90
36800;DHT22;22752;51.960;5.886;2023-09-19T02:25:10;15.10;99.90
36800;DHT22;22752;51.960;5.886;2023-09-19T02:27:36;15.00;99.90
36800;DHT22;22752;51.960;5.886;2023-09-19T02:30:03;14.90;99.90
36800;DHT22;22752;51.960;5.886;2023-09-19T02:32:30;14.90;99.90
36800;DHT22;22752;51.960;5.886;2023-09-19T02:34:57;14.80;99.90
36800;DHT22;22752;51.960;5.886;2023-09-19T02:37:24;14.80;99.90
36800;DHT22;22752;51.960;5.886;2023-09-19T02:39:50;14.80;99.90
36800;DHT22;22752;51.960;5.886;2023-09-19T02:42:16;14.70;99.90
36800;DHT22;22752;51.960;5.886;2023-09-19T02:44:41;14.70;99.90
36800;DHT22;22752;51.960;5.886;2023-09-19T02:47:07;14.60;99.90
36800;DHT22;22752;51.960;5.886;2023-09-19T02:49:33;14.60;99.90
36800;DHT22;22752;51.960;5.886;2023-09-19T02:51:58;14.60;99.90
36800;DHT22;22752;51.960;5.886;2023-09-19T02:54:24;14.60;99.90
36800;DHT22;22752;51.960;5.886;2023-09-19T02:56:50;14.50;99.90
36800;DHT22;22752;51.960;5.886;2023-09-19T02:59:16;14.50;99.90
36800;DHT22;22752;51.960;5.886;2023-09-19T03:01:45;14.40;99.90
36800;DHT22;22752;51.960;5.886;2023-09-19T03:04:14;14.40;99.90
36800;DHT22;22752;51.960;5.886;2023-09-19T03:06:42;14.40;99.90
36800;DHT22;22752;51.960;5.886;2023-09-19T03:09:09;14.30;99.90
36800;DHT22;22752;51.960;5.886;2023-09-19T03:11:36;14.30;99.90
36800;DHT22;22752;51.960;5.886;2023-09-19T03:14:03;14.30;99.90
36800;DHT22;22752;51.960;5.886;2023-09-19T03:16:29;14.20;99.90
36800;DHT22;22752;51.960;5.886;2023-09-19T03:18:55;14.20;99.90
36800;DHT22;22752;51.960;5.886;2023-09-19T03:21:21;14.20;99.90
36800;DHT22;22752;51.960;5.886;2023-09-19T03:23:47;14.10;99.90
36800;DHT22;22752;51.960;5.886;2023-09-19T03:26:13;14.10;99.90
36800;DHT22;22752;51.960;5.886;2023-09-19T03:28:39;14.10;99.90
36800;DHT22;22752;51.960;5.886;2023-09-19T03:31:07;14.10;99.90
36800;DHT22;22752;51.960;5.886;2023-09-19T03:33:32;14.10;99.90
36800;DHT22;22752;51.960;5.886;2023-09-19T03:35:59;14.00;99.90
36800;DHT22;22752;51.960;5.886;2023-09-19T03:38:29;14.00;99.90
36800;DHT22;22752;51.960;5.886;2023-09-19T03:40:54;14.00;99.90
36800;DHT22;22752;51.960;5.886;2023-09-19T03:46:16;14.00;99.90
36800;DHT22;22752;51.960;5.886;2023-09-19T03:48:42;14.00;99.90
36800;DHT22;22752;51.960;5.886;2023-09-19T03:51:08;13.90;99.90
36800;DHT22;22752;51.960;5.886;2023-09-19T03:53:33;13.90;99.90
36800;DHT22;22752;51.960;5.886;2023-09-19T03:55:59;13.90;99.90
36800;DHT22;22752;51.960;5.886;2023-09-19T03:58:25;13.90;99.90
36800;DHT22;22752;51.960;5.886;2023-09-19T04:00:55;13.80;99.90
36800;DHT22;22752;51.960;5.886;2023-09-19T04:03:21;13.80;99.90
36800;DHT22;22752;51.960;5.886;2023-09-19T04:05:47;13.80;99.90
36800;DHT22;22752;51.960;5.886;2023-09-19T04:08:15;13.80;99.90
36800;DHT22;22752;51.960;5.886;2023-09-19T04:10:44;13.70;99.90
36800;DHT22;22752;51.960;5.886;2023-09-19T04:13:11;13.70;99.90
36800;DHT22;22752;51.960;5.886;2023-09-19T04:15:36;13.70;99.90
36800;DHT22;22752;51.960;5.886;2023-09-19T04:18:03;13.70;99.90
36800;DHT22;22752;51.960;5.886;2023-09-19T04:20:29;13.70;99.90
36800;DHT22;22752;51.960;5.886;2023-09-19T04:22:54;13.80;99.90
36800;DHT22;22752;51.960;5.886;2023-09-19T04:25:20;13.70;99.90
36800;DHT22;22752;51.960;5.886;2023-09-19T04:27:46;13.80;99.90
36800;DHT22;22752;51.960;5.886;2023-09-19T04:30:13;13.80;99.90
36800;DHT22;22752;51.960;5.886;2023-09-19T04:32:40;13.80;99.90
36800;DHT22;22752;51.960;5.886;2023-09-19T04:35:09;13.80;99.90
36800;DHT22;22752;51.960;5.886;2023-09-19T04:37:41;13.80;99.90
36800;DHT22;22752;51.960;5.886;2023-09-19T04:40:08;13.80;99.90
36800;DHT22;22752;51.960;5.886;2023-09-19T04:42:43;13.80;99.90
36800;DHT22;22752;51.960;5.886;2023-09-19T04:45:09;13.80;99.90
36800;DHT22;22752;51.960;5.886;2023-09-19T04:47:39;13.80;99.90
36800;DHT22;22752;51.960;5.886;2023-09-19T04:50:06;13.80;99.90
36800;DHT22;22752;51.960;5.886;2023-09-19T04:52:33;13.80;99.90
36800;DHT22;22752;51.960;5.886;2023-09-19T04:54:59;13.80;99.90
36800;DHT22;22752;51.960;5.886;2023-09-19T04:57:24;13.80;99.90
36800;DHT22;22752;51.960;5.886;2023-09-19T04:59:51;13.80;99.90
36800;DHT22;22752;51.960;5.886;2023-09-19T05:02:17;13.80;99.90
36800;DHT22;22752;51.960;5.886;2023-09-19T05:04:42;13.80;99.90
36800;DHT22;22752;51.960;5.886;2023-09-19T05:07:08;13.80;99.90
36800;DHT22;22752;51.960;5.886;2023-09-19T05:09:36;13.80;99.90
36800;DHT22;22752;51.960;5.886;2023-09-19T05:12:03;13.80;99.90
36800;DHT22;22752;51.960;5.886;2023-09-19T05:14:28;13.70;99.90
36800;DHT22;22752;51.960;5.886;2023-09-19T05:16:54;13.70;99.90
36800;DHT22;22752;51.960;5.886;2023-09-19T05:19:20;13.80;99.90
36800;DHT22;22752;51.960;5.886;2023-09-19T05:21:45;13.80;99.90
36800;DHT22;22752;51.960;5.886;2023-09-19T05:24:12;13.80;99.90
36800;DHT22;22752;51.960;5.886;2023-09-19T05:26:40;13.90;99.90
36800;DHT22;22752;51.960;5.886;2023-09-19T05:29:05;13.90;99.90
36800;DHT22;22752;51.960;5.886;2023-09-19T05:31:33;13.90;99.90
36800;DHT22;22752;51.960;5.886;2023-09-19T05:34:01;13.90;99.90
36800;DHT22;22752;51.960;5.886;2023-09-19T05:36:27;13.90;99.90
36800;DHT22;22752;51.960;5.886;2023-09-19T05:38:55;13.90;99.90
36800;DHT22;22752;51.960;5.886;2023-09-19T05:41:21;14.00;99.90
36800;DHT22;22752;51.960;5.886;2023-09-19T05:43:49;14.10;99.90
36800;DHT22;22752;51.960;5.886;2023-09-19T05:46:15;14.10;99.90
36800;DHT22;22752;51.960;5.886;2023-09-19T05:48:42;14.20;99.90
36800;DHT22;22752;51.960;5.886;2023-09-19T05:51:09;14.20;99.90
36800;DHT22;22752;51.960;5.886;2023-09-19T05:53:35;14.20;99.90
36800;DHT22;22752;51.960;5.886;2023-09-19T05:56:01;14.20;99.90
36800;DHT22;22752;51.960;5.886;2023-09-19T05:58:26;14.20;99.90
36800;DHT22;22752;51.960;5.886;2023-09-19T06:00:52;14.20;99.90
36800;DHT22;22752;51.960;5.886;2023-09-19T06:03:18;14.30;99.90
36800;DHT22;22752;51.960;5.886;2023-09-19T06:05:44;14.30;99.90
36800;DHT22;22752;51.960;5.886;2023-09-19T06:08:11;14.40;99.90
36800;DHT22;22752;51.960;5.886;2023-09-19T06:10:37;14.40;99.90
36800;DHT22;22752;51.960;5.886;2023-09-19T06:13:03;14.50;99.90
36800;DHT22;22752;51.960;5.886;2023-09-19T06:15:30;14.50;99.90
36800;DHT22;22752;51.960;5.886;2023-09-19T06:17:58;14.60;99.90
36800;DHT22;22752;51.960;5.886;2023-09-19T06:20:25;14.60;99.90
36800;DHT22;22752;51.960;5.886;2023-09-19T06:22:52;14.70;99.90
36800;DHT22;22752;51.960;5.886;2023-09-19T06:25:18;14.80;99.90
36800;DHT22;22752;51.960;5.886;2023-09-19T06:27:51;14.90;99.90
36800;DHT22;22752;51.960;5.886;2023-09-19T06:30:19;15.00;99.90
36800;DHT22;22752;51.960;5.886;2023-09-19T06:32:45;15.10;99.90
36800;DHT22;22752;51.960;5.886;2023-09-19T06:35:12;15.10;99.90
36800;DHT22;22752;51.960;5.886;2023-09-19T06:37:38;15.30;99.90
36800;DHT22;22752;51.960;5.886;2023-09-19T06:40:22;15.40;99.90
36800;DHT22;22752;51.960;5.886;2023-09-19T06:42:51;15.50;99.90
36800;DHT22;22752;51.960;5.886;2023-09-19T06:45:16;15.60;99.90
36800;DHT22;22752;51.960;5.886;2023-09-19T06:47:48;15.80;99.90
36800;DHT22;22752;51.960;5.886;2023-09-19T06:50:21;15.90;99.90
36800;DHT22;22752;51.960;5.886;2023-09-19T06:52:49;15.90;99.90
36800;DHT22;22752;51.960;5.886;2023-09-19T06:55:19;16.00;99.90
36800;DHT22;22752;51.960;5.886;2023-09-19T06:57:48;16.10;99.90
36800;DHT22;22752;51.960;5.886;2023-09-19T07:00:15;16.20;99.90
36800;DHT22;22752;51.960;5.886;2023-09-19T07:02:42;16.30;99.90
36800;DHT22;22752;51.960;5.886;2023-09-19T07:05:08;16.30;99.90
36800;DHT22;22752;51.960;5.886;2023-09-19T07:07:33;16.40;99.90
36800;DHT22;22752;51.960;5.886;2023-09-19T07:10:05;16.50;99.90
36800;DHT22;22752;51.960;5.886;2023-09-19T07:12:31;16.60;99.90
36800;DHT22;22752;51.960;5.886;2023-09-19T07:14:58;16.70;99.90
36800;DHT22;22752;51.960;5.886;2023-09-19T07:17:24;16.70;99.90
36800;DHT22;22752;51.960;5.886;2023-09-19T07:19:49;16.70;99.90
36800;DHT22;22752;51.960;5.886;2023-09-19T07:22:16;16.70;99.90
36800;DHT22;22752;51.960;5.886;2023-09-19T07:24:41;16.80;99.90
36800;DHT22;22752;51.960;5.886;2023-09-19T07:27:08;17.00;99.90
36800;DHT22;22752;51.960;5.886;2023-09-19T07:29:34;17.20;99.90
36800;DHT22;22752;51.960;5.886;2023-09-19T07:32:00;17.40;99.90
36800;DHT22;22752;51.960;5.886;2023-09-19T07:34:25;17.50;99.90
36800;DHT22;22752;51.960;5.886;2023-09-19T07:36:51;17.70;99.90
36800;DHT22;22752;51.960;5.886;2023-09-19T07:39:17;17.80;99.90
36800;DHT22;22752;51.960;5.886;2023-09-19T07:41:43;17.90;99.90
36800;DHT22;22752;51.960;5.886;2023-09-19T07:44:08;18.00;99.90
36800;DHT22;22752;51.960;5.886;2023-09-19T07:46:35;18.10;99.90
36800;DHT22;22752;51.960;5.886;2023-09-19T07:49:01;18.30;99.90
36800;DHT22;22752;51.960;5.886;2023-09-19T07:51:27;18.30;99.90
36800;DHT22;22752;51.960;5.886;2023-09-19T07:53:53;18.30;99.90
36800;DHT22;22752;51.960;5.886;2023-09-19T07:56:20;18.40;99.90
36800;DHT22;22752;51.960;5.886;2023-09-19T07:58:46;18.40;99.90
36800;DHT22;22752;51.960;5.886;2023-09-19T08:01:12;18.40;99.90
36800;DHT22;22752;51.960;5.886;2023-09-19T08:03:39;18.40;99.90
36800;DHT22;22752;51.960;5.886;2023-09-19T08:06:09;18.60;99.90
36800;DHT22;22752;51.960;5.886;2023-09-19T08:08:35;18.70;99.90
36800;DHT22;22752;51.960;5.886;2023-09-19T08:11:03;18.70;99.90
36800;DHT22;22752;51.960;5.886;2023-09-19T08:13:36;18.90;99.90
36800;DHT22;22752;51.960;5.886;2023-09-19T08:16:03;18.90;99.90
36800;DHT22;22752;51.960;5.886;2023-09-19T08:18:30;19.00;99.90
36800;DHT22;22752;51.960;5.886;2023-09-19T08:20:56;19.00;99.90
36800;DHT22;22752;51.960;5.886;2023-09-19T08:23:24;19.00;99.90
36800;DHT22;22752;51.960;5.886;2023-09-19T08:25:50;19.00;99.90
36800;DHT22;22752;51.960;5.886;2023-09-19T08:28:21;19.10;99.90
36800;DHT22;22752;51.960;5.886;2023-09-19T08:30:50;19.10;99.90
36800;DHT22;22752;51.960;5.886;2023-09-19T08:33:16;19.10;99.90
36800;DHT22;22752;51.960;5.886;2023-09-19T08:35:42;19.20;99.90
36800;DHT22;22752;51.960;5.886;2023-09-19T08:38:09;19.10;99.90
36800;DHT22;22752;51.960;5.886;2023-09-19T08:40:39;19.10;99.90
36800;DHT22;22752;51.960;5.886;2023-09-19T08:43:09;19.00;99.90
36800;DHT22;22752;51.960;5.886;2023-09-19T08:45:35;18.90;99.90
36800;DHT22;22752;51.960;5.886;2023-09-19T08:48:23;19.00;99.90
36800;DHT22;22752;51.960;5.886;2023-09-19T08:50:57;19.00;99.90
36800;DHT22;22752;51.960;5.886;2023-09-19T08:53:50;19.00;99.90
36800;DHT22;22752;51.960;5.886;2023-09-19T08:56:18;18.90;99.90
36800;DHT22;22752;51.960;5.886;2023-09-19T08:58:50;19.00;99.90
36800;DHT22;22752;51.960;5.886;2023-09-19T09:01:18;19.10;99.90
36800;DHT22;22752;51.960;5.886;2023-09-19T09:03:51;19.10;99.90
36800;DHT22;22752;51.960;5.886;2023-09-19T09:06:19;18.90;99.90
36800;DHT22;22752;51.960;5.886;2023-09-19T09:08:46;18.90;99.90
36800;DHT22;22752;51.960;5.886;2023-09-19T09:11:15;19.00;99.90
36800;DHT22;22752;51.960;5.886;2023-09-19T09:13:45;19.10;99.90
36800;DHT22;22752;51.960;5.886;2023-09-19T09:16:12;19.20;99.90
36800;DHT22;22752;51.960;5.886;2023-09-19T09:18:39;19.30;99.90
36800;DHT22;22752;51.960;5.886;2023-09-19T09:21:05;19.30;99.90
36800;DHT22;22752;51.960;5.886;2023-09-19T09:23:32;19.30;99.90
36800;DHT22;22752;51.960;5.886;2023-09-19T09:25:59;19.30;99.90
36800;DHT22;22752;51.960;5.886;2023-09-19T09:28:29;19.30;99.90
36800;DHT22;22752;51.960;5.886;2023-09-19T09:30:59;19.40;99.90
36800;DHT22;22752;51.960;5.886;2023-09-19T09:33:25;19.60;99.90
36800;DHT22;22752;51.960;5.886;2023-09-19T09:35:53;19.70;99.90
36800;DHT22;22752;51.960;5.886;2023-09-19T09:38:23;19.80;99.90
36800;DHT22;22752;51.960;5.886;2023-09-19T09:40:59;19.90;99.90
36800;DHT22;22752;51.960;5.886;2023-09-19T09:43:38;20.10;99.90
36800;DHT22;22752;51.960;5.886;2023-09-19T09:46:19;20.00;99.90
36800;DHT22;22752;51.960;5.886;2023-09-19T09:48:58;19.90;99.90
36800;DHT22;22752;51.960;5.886;2023-09-19T09:51:50;19.80;99.90
36800;DHT22;22752;51.960;5.886;2023-09-19T09:54:24;19.80;99.90
36800;DHT22;22752;51.960;5.886;2023-09-19T09:59:48;19.90;99.90
36800;DHT22;22752;51.960;5.886;2023-09-19T10:02:29;19.80;99.90
36800;DHT22;22752;51.960;5.886;2023-09-19T10:04:56;19.80;99.90
36800;DHT22;22752;51.960;5.886;2023-09-19T10:09:53;19.90;99.90
36800;DHT22;22752;51.960;5.886;2023-09-19T10:12:26;19.90;99.90
36800;DHT22;22752;51.960;5.886;2023-09-19T10:14:56;19.90;99.90
36800;DHT22;22752;51.960;5.886;2023-09-19T10:17:24;19.80;99.90
36800;DHT22;22752;51.960;5.886;2023-09-19T10:19:55;19.70;99.90
36800;DHT22;22752;51.960;5.886;2023-09-19T10:22:26;19.80;99.90
36800;DHT22;22752;51.960;5.886;2023-09-19T10:24:53;19.90;99.90
36800;DHT22;22752;51.960;5.886;2023-09-19T10:27:21;20.10;99.90
36800;DHT22;22752;51.960;5.886;2023-09-19T10:29:49;20.00;99.90
36800;DHT22;22752;51.960;5.886;2023-09-19T10:32:19;20.00;99.90
36800;DHT22;22752;51.960;5.886;2023-09-19T10:34:47;20.00;99.90
36800;DHT22;22752;51.960;5.886;2023-09-19T10:37:16;20.20;99.90
36800;DHT22;22752;51.960;5.886;2023-09-19T10:39:46;20.20;99.90
36800;DHT22;22752;51.960;5.886;2023-09-19T10:42:16;20.20;99.90
36800;DHT22;22752;51.960;5.886;2023-09-19T10:44:45;20.20;99.90
36800;DHT22;22752;51.960;5.886;2023-09-19T10:47:12;20.40;99.90
36800;DHT22;22752;51.960;5.886;2023-09-19T10:49:46;20.50;99.90
36800;DHT22;22752;51.960;5.886;2023-09-19T10:52:12;20.50;99.90
36800;DHT22;22752;51.960;5.886;2023-09-19T10:54:46;20.50;99.90
36800;DHT22;22752;51.960;5.886;2023-09-19T10:57:23;20.40;99.90
36800;DHT22;22752;51.960;5.886;2023-09-19T11:00:06;20.40;99.90
36800;DHT22;22752;51.960;5.886;2023-09-19T11:06:03;20.30;99.90
36800;DHT22;22752;51.960;5.886;2023-09-19T11:08:58;20.20;99.90
36800;DHT22;22752;51.960;5.886;2023-09-19T11:28:27;20.20;99.90
36800;DHT22;22752;51.960;5.886;2023-09-19T11:30:52;20.40;99.90
36800;DHT22;22752;51.960;5.886;2023-09-19T11:36:06;20.50;99.90
36800;DHT22;22752;51.960;5.886;2023-09-19T11:46:52;20.50;99.90
36800;DHT22;22752;51.960;5.886;2023-09-19T11:49:19;20.60;99.90
36800;DHT22;22752;51.960;5.886;2023-09-19T11:51:51;20.50;99.90
36800;DHT22;22752;51.960;5.886;2023-09-19T11:54:17;20.60;99.90
36800;DHT22;22752;51.960;5.886;2023-09-19T11:56:49;20.50;99.90
36800;DHT22;22752;51.960;5.886;2023-09-19T11:59:30;20.60;99.90
36800;DHT22;22752;51.960;5.886;2023-09-19T12:02:06;20.60;99.90
36800;DHT22;22752;51.960;5.886;2023-09-19T12:04:41;20.70;99.90
36800;DHT22;22752;51.960;5.886;2023-09-19T12:07:10;20.90;99.90
36800;DHT22;22752;51.960;5.886;2023-09-19T12:09:41;21.10;99.90
36800;DHT22;22752;51.960;5.886;2023-09-19T12:12:19;21.20;99.90
36800;DHT22;22752;51.960;5.886;2023-09-19T12:14:49;21.20;99.90
36800;DHT22;22752;51.960;5.886;2023-09-19T12:17:16;21.20;99.90
36800;DHT22;22752;51.960;5.886;2023-09-19T12:19:55;21.10;99.90
36800;DHT22;22752;51.960;5.886;2023-09-19T12:22:20;21.00;99.90
36800;DHT22;22752;51.960;5.886;2023-09-19T12:24:47;20.80;99.90
36800;DHT22;22752;51.960;5.886;2023-09-19T12:27:13;20.80;99.90
36800;DHT22;22752;51.960;5.886;2023-09-19T12:29:47;20.90;99.90
36800;DHT22;22752;51.960;5.886;2023-09-19T12:32:16;21.10;99.90
36800;DHT22;22752;51.960;5.886;2023-09-19T12:34:51;21.30;99.90
36800;DHT22;22752;51.960;5.886;2023-09-19T12:37:18;21.40;99.90
36800;DHT22;22752;51.960;5.886;2023-09-19T12:39:50;21.40;99.90
36800;DHT22;22752;51.960;5.886;2023-09-19T12:42:22;21.40;99.90
36800;DHT22;22752;51.960;5.886;2023-09-19T12:44:50;21.30;99.90
36800;DHT22;22752;51.960;5.886;2023-09-19T12:47:23;21.20;99.90
36800;DHT22;22752;51.960;5.886;2023-09-19T12:52:48;20.90;99.90
36800;DHT22;22752;51.960;5.886;2023-09-19T12:55:21;20.80;99.90
36800;DHT22;22752;51.960;5.886;2023-09-19T12:58:19;20.70;99.90
36800;DHT22;22752;51.960;5.886;2023-09-19T13:00:45;20.70;99.90
36800;DHT22;22752;51.960;5.886;2023-09-19T13:03:15;20.60;99.90
36800;DHT22;22752;51.960;5.886;2023-09-19T13:08:18;20.50;99.90
36800;DHT22;22752;51.960;5.886;2023-09-19T13:11:15;20.40;99.90
36800;DHT22;22752;51.960;5.886;2023-09-19T13:13:44;20.40;99.90
36800;DHT22;22752;51.960;5.886;2023-09-19T13:16:10;20.40;99.90
36800;DHT22;22752;51.960;5.886;2023-09-19T13:21:13;20.60;99.90
36800;DHT22;22752;51.960;5.886;2023-09-19T13:23:53;20.70;99.90
36800;DHT22;22752;51.960;5.886;2023-09-19T13:26:20;20.80;99.90
36800;DHT22;22752;51.960;5.886;2023-09-19T13:28:45;20.70;99.90
36800;DHT22;22752;51.960;5.886;2023-09-19T13:31:13;20.70;99.90
36800;DHT22;22752;51.960;5.886;2023-09-19T13:33:43;20.60;99.90
36800;DHT22;22752;51.960;5.886;2023-09-19T13:36:10;20.60;99.90
36800;DHT22;22752;51.960;5.886;2023-09-19T13:38:37;20.60;99.90
36800;DHT22;22752;51.960;5.886;2023-09-19T13:41:04;20.50;99.90
36800;DHT22;22752;51.960;5.886;2023-09-19T13:43:29;20.50;99.90
36800;DHT22;22752;51.960;5.886;2023-09-19T13:45:55;20.40;99.90
36800;DHT22;22752;51.960;5.886;2023-09-19T13:48:23;20.30;99.90
36800;DHT22;22752;51.960;5.886;2023-09-19T13:50:49;20.30;99.90
36800;DHT22;22752;51.960;5.886;2023-09-19T13:53:15;20.30;99.90
36800;DHT22;22752;51.960;5.886;2023-09-19T13:55:42;20.30;99.90
36800;DHT22;22752;51.960;5.886;2023-09-19T13:58:08;20.30;99.90
36800;DHT22;22752;51.960;5.886;2023-09-19T14:00:36;20.30;99.90
36800;DHT22;22752;51.960;5.886;2023-09-19T14:03:02;20.40;99.90
36800;DHT22;22752;51.960;5.886;2023-09-19T14:05:30;20.50;99.90
36800;DHT22;22752;51.960;5.886;2023-09-19T14:07:56;20.60;99.90
36800;DHT22;22752;51.960;5.886;2023-09-19T14:10:23;20.80;99.90
36800;DHT22;22752;51.960;5.886;2023-09-19T14:12:48;21.00;99.90
36800;DHT22;22752;51.960;5.886;2023-09-19T14:15:14;21.10;99.90
36800;DHT22;22752;51.960;5.886;2023-09-19T14:17:40;21.20;99.90
36800;DHT22;22752;51.960;5.886;2023-09-19T14:20:10;21.30;99.90
36800;DHT22;22752;51.960;5.886;2023-09-19T14:22:36;21.30;99.90
36800;DHT22;22752;51.960;5.886;2023-09-19T14:25:03;21.30;99.90
36800;DHT22;22752;51.960;5.886;2023-09-19T14:27:30;21.40;99.90
36800;DHT22;22752;51.960;5.886;2023-09-19T14:29:55;21.40;99.90
36800;DHT22;22752;51.960;5.886;2023-09-19T14:32:23;21.40;99.90
36800;DHT22;22752;51.960;5.886;2023-09-19T14:34:48;21.30;99.90
36800;DHT22;22752;51.960;5.886;2023-09-19T14:37:15;21.10;99.90
36800;DHT22;22752;51.960;5.886;2023-09-19T14:39:43;21.00;99.90
36800;DHT22;22752;51.960;5.886;2023-09-19T14:42:12;20.90;99.90
36800;DHT22;22752;51.960;5.886;2023-09-19T14:44:40;20.70;99.90
36800;DHT22;22752;51.960;5.886;2023-09-19T14:47:05;20.70;99.90
36800;DHT22;22752;51.960;5.886;2023-09-19T14:49:35;20.70;99.90
36800;DHT22;22752;51.960;5.886;2023-09-19T14:52:09;20.70;99.90
36800;DHT22;22752;51.960;5.886;2023-09-19T14:54:35;20.70;99.90
36800;DHT22;22752;51.960;5.886;2023-09-19T14:57:06;20.70;99.90
36800;DHT22;22752;51.960;5.886;2023-09-19T14:59:34;20.60;99.90
36800;DHT22;22752;51.960;5.886;2023-09-19T15:02:06;20.60;99.90
36800;DHT22;22752;51.960;5.886;2023-09-19T15:04:32;20.60;99.90
36800;DHT22;22752;51.960;5.886;2023-09-19T15:06:59;20.50;99.90
36800;DHT22;22752;51.960;5.886;2023-09-19T15:09:25;20.50;99.90
36800;DHT22;22752;51.960;5.886;2023-09-19T15:11:55;20.50;99.90
36800;DHT22;22752;51.960;5.886;2023-09-19T15:14:24;20.40;99.90
36800;DHT22;22752;51.960;5.886;2023-09-19T15:16:53;20.30;99.90
36800;DHT22;22752;51.960;5.886;2023-09-19T15:19:18;20.30;99.90
36800;DHT22;22752;51.960;5.886;2023-09-19T15:21:44;20.20;99.90
36800;DHT22;22752;51.960;5.886;2023-09-19T15:24:10;20.10;99.90
36800;DHT22;22752;51.960;5.886;2023-09-19T15:26:36;20.10;99.90
36800;DHT22;22752;51.960;5.886;2023-09-19T15:29:07;20.00;99.90
36800;DHT22;22752;51.960;5.886;2023-09-19T15:31:33;20.00;99.90
36800;DHT22;22752;51.960;5.886;2023-09-19T15:34:02;20.00;99.90
36800;DHT22;22752;51.960;5.886;2023-09-19T15:36:28;20.00;99.90
36800;DHT22;22752;51.960;5.886;2023-09-19T15:39:04;19.90;99.90
36800;DHT22;22752;51.960;5.886;2023-09-19T15:43:59;19.90;99.90
36800;DHT22;22752;51.960;5.886;2023-09-19T15:46:27;19.90;99.90
36800;DHT22;22752;51.960;5.886;2023-09-19T15:48:57;19.80;99.90
36800;DHT22;22752;51.960;5.886;2023-09-19T15:51:23;19.80;99.90
36800;DHT22;22752;51.960;5.886;2023-09-19T15:53:52;19.80;99.90
36800;DHT22;22752;51.960;5.886;2023-09-19T15:56:19;19.80;99.90
36800;DHT22;22752;51.960;5.886;2023-09-19T15:58:50;19.70;99.90
36800;DHT22;22752;51.960;5.886;2023-09-19T16:01:16;19.70;99.90
36800;DHT22;22752;51.960;5.886;2023-09-19T16:03:50;19.70;99.90
36800;DHT22;22752;51.960;5.886;2023-09-19T16:06:19;19.70;99.90
36800;DHT22;22752;51.960;5.886;2023-09-19T16:08:49;19.70;99.90
36800;DHT22;22752;51.960;5.886;2023-09-19T16:11:17;19.70;99.90
36800;DHT22;22752;51.960;5.886;2023-09-19T16:13:43;19.80;99.90
36800;DHT22;22752;51.960;5.886;2023-09-19T16:16:12;19.80;99.90
36800;DHT22;22752;51.960;5.886;2023-09-19T16:18:54;19.80;99.90
36800;DHT22;22752;51.960;5.886;2023-09-19T16:21:23;19.80;99.90
36800;DHT22;22752;51.960;5.886;2023-09-19T16:23:50;19.70;99.90
36800;DHT22;22752;51.960;5.886;2023-09-19T16:26:17;19.70;99.90
36800;DHT22;22752;51.960;5.886;2023-09-19T16:28:47;19.70;99.90
36800;DHT22;22752;51.960;5.886;2023-09-19T16:31:14;19.70;99.90
36800;DHT22;22752;51.960;5.886;2023-09-19T16:33:43;19.70;99.90
36800;DHT22;22752;51.960;5.886;2023-09-19T16:36:12;19.60;99.90
36800;DHT22;22752;51.960;5.886;2023-09-19T16:38:39;19.60;99.90
36800;DHT22;22752;51.960;5.886;2023-09-19T16:41:05;19.60;99.90